FW7644 Weather Reports


Display with metric or nautical units.
time (UTC)temp
F
wind
direction
speed
MPH
gust
MPH
rain 1hr
in
rain 24hr
in
rain mn
in
humidity
%
barometer
mb
20220808203132 62 0.0 0.0 0.00 0.24 0.10 76 1019.1
20220808202631 62 0.0 0.0 0.00 0.24 0.10 75 1019.1
20220808202130 62 0.0 0.0 0.00 0.24 0.10 75 1019.0
20220808201629 62 0.0 0.0 0.00 0.24 0.10 74 1018.9
20220808201128 63 0.0 0.0 0.00 0.24 0.10 74 1018.8
20220808200627 63 0.0 0.0 0.00 0.24 0.10 73 1018.8
20220808200126 64 0.0 0.0 0.00 0.24 0.10 74 1018.9
20220808195625 63 0.0 0.0 0.00 0.31 0.10 74 1018.7
20220808195124 64 0.0 0.0 0.00 0.31 0.10 73 1018.6
20220808194623 64 0.0 0.0 0.00 0.31 0.10 73 1018.5
20220808194122 64 0.0 0.0 0.00 0.31 0.10 73 1018.3
20220808193621 64 0.0 0.0 0.00 0.31 0.10 71 1018.1
20220808193120 64 0.0 0.0 0.00 0.31 0.10 72 1018.2
20220808192619 65 0.0 0.0 0.00 0.31 0.10 71 1018.1
20220808192118 65 0.0 0.0 0.00 0.31 0.10 71 1018.1
20220808191617 65 0.0 0.0 0.00 0.31 0.10 70 1018.4
20220808191116 65 0.0 0.0 0.00 0.31 0.10 71 1018.3
20220808190615 66 0.0 0.0 0.00 0.31 0.10 70 1018.3
20220808190114 66 0.0 0.0 0.00 0.31 0.10 70 1018.3
20220808185613 66 0.0 0.0 0.00 0.36 0.10 70 1018.2
20220808185112 66 0.0 0.0 0.00 0.36 0.10 69 1018.1
20220808184611 68 0.0 0.0 0.00 0.36 0.10 65 1018.1
20220808184110 68 0.0 0.0 0.00 0.36 0.10 66 1018.1
20220808183609 68 0.0 0.0 0.00 0.36 0.10 67 1018.0
20220808183108 69 0.0 0.0 0.00 0.36 0.10 65 1018.1
20220808182607 69 0.0 0.0 0.00 0.36 0.10 66 1018.1
20220808182106 69 0.0 0.0 0.00 0.36 0.10 65 1018.2
20220808181605 70 0.0 0.0 0.00 0.36 0.10 62 1018.2
20220808181104 70 0.0 0.0 0.00 0.36 0.10 64 1018.2
20220808180603 70 0.0 0.0 0.00 0.36 0.10 63 1018.2
20220808180102 71 0.0 0.0 0.00 0.36 0.10 63 1018.2
20220808175601 73 0.0 0.0 0.00 0.42 0.10 58 1018.2
20220808175100 73 0.0 0.0 0.00 0.42 0.10 58 1018.2
20220808174559 72 0.0 0.0 0.00 0.42 0.10 61 1018.3
20220808174058 71 0.0 0.0 0.00 0.42 0.10 62 1018.3
20220808173557 72 0.0 0.0 0.00 0.42 0.10 63 1018.3
20220808173056 70 0.0 0.0 0.00 0.42 0.10 66 1018.4
20220808172555 69 0.0 0.0 0.00 0.42 0.10 64 1018.3
20220808172054 69 0.0 0.0 0.00 0.42 0.10 63 1018.5
20220808171553 70 0.0 0.0 0.00 0.42 0.10 63 1018.4
20220808171052 71 0.0 0.0 0.00 0.42 0.10 60 1018.5
20220808170551 72 0.0 0.0 0.00 0.42 0.10 58 1018.5
20220808170050 71 0.0 0.0 0.00 0.42 0.10 61 1018.6
20220808165549 72 0.0 0.0 0.00 0.42 0.10 58 1018.6
20220808165048 73 0.0 0.0 0.00 0.42 0.10 56 1018.6
20220808164547 70 0.0 0.0 0.00 0.42 0.10 63 1018.8
20220808164046 70 0.0 0.0 0.00 0.42 0.10 62 1018.9
20220808163545 71 0.0 0.0 0.00 0.42 0.10 60 1018.9
20220808163044 71 0.0 0.0 0.00 0.42 0.10 62 1019.0
20220808162543 69 0.0 0.0 0.00 0.42 0.10 66 1019.1
20220808162042 68 0.0 0.0 0.00 0.42 0.10 66 1019.2
20220808161541 68 0.0 0.0 0.00 0.42 0.10 67 1019.3
20220808161040 68 0.0 0.0 0.00 0.42 0.10 67 1019.5
20220808160539 69 0.0 0.0 0.00 0.42 0.10 66 1019.5
20220808160038 68 0.0 0.0 0.00 0.42 0.10 66 1019.5
20220808155537 68 0.0 0.0 0.00 0.43 0.10 67 1019.6
20220808155036 68 0.0 0.0 0.00 0.43 0.10 66 1019.8
20220808154535 68 0.0 0.0 0.00 0.43 0.10 67 1019.7
20220808154034 67 0.0 0.0 0.00 0.43 0.10 68 1019.8
20220808153533 67 0.0 0.0 0.00 0.43 0.10 69 1019.9
20220808153032 67 0.0 0.0 0.00 0.43 0.10 69 1019.9
20220808152531 67 0.0 0.0 0.00 0.43 0.10 69 1019.8
20220808152030 67 0.0 0.0 0.00 0.43 0.10 70 1019.7
20220808151529 66 0.0 0.0 0.00 0.43 0.10 70 1019.8
20220808151028 67 0.0 0.0 0.00 0.43 0.10 68 1019.8
20220808150527 67 0.0 0.0 0.00 0.43 0.10 69 1019.9
20220808150026 67 0.0 0.0 0.00 0.43 0.10 69 1020.0
20220808145525 67 0.0 0.0 0.00 0.43 0.10 68 1020.0
20220808145024 67 0.0 0.0 0.00 0.43 0.10 69 1020.0
20220808144523 67 0.0 0.0 0.00 0.43 0.10 70 1020.1
20220808144022 67 0.0 0.0 0.00 0.43 0.10 70 1020.1
20220808143521 66 0.0 0.0 0.00 0.43 0.10 69 1020.0
20220808143020 67 0.0 0.0 0.00 0.43 0.10 70 1020.0
20220808142519 67 0.0 0.0 0.00 0.43 0.10 70 1020.1
20220808142018 66 0.0 0.0 0.00 0.43 0.10 71 1020.1
20220808141517 66 0.0 0.0 0.00 0.43 0.10 71 1020.1
20220808141016 66 0.0 0.0 0.00 0.43 0.10 72 1020.0
20220808140515 66 0.0 0.0 0.00 0.43 0.10 72 1020.1
20220808140014 66 0.0 0.0 0.00 0.43 0.10 73 1020.2
20220808135513 66 0.0 0.0 0.00 0.45 0.10 73 1020.1
20220808135012 66 0.0 0.0 0.00 0.45 0.10 74 1020.0
20220808134511 65 0.0 0.0 0.00 0.45 0.10 74 1020.1
20220808134010 65 0.0 0.0 0.00 0.45 0.10 74 1020.2
20220808133509 65 0.0 0.0 0.00 0.45 0.10 75 1020.1
20220808133008 65 0.0 0.0 0.00 0.45 0.10 74 1020.1
20220808132507 65 0.0 0.0 0.00 0.45 0.10 75 1020.1
20220808132006 65 0.0 0.0 0.00 0.45 0.10 75 1020.0
20220808131505 65 0.0 0.0 0.00 0.45 0.10 75 1019.9
20220808131004 64 0.0 0.0 0.00 0.45 0.10 76 1019.9
20220808130503 64 0.0 0.0 0.00 0.45 0.10 76 1019.7
20220808130002 64 0.0 0.0 0.00 0.45 0.10 77 1019.9
20220808125501 64 0.0 0.0 0.00 0.47 0.10 77 1019.8
20220808125000 64 0.0 0.0 0.00 0.47 0.10 77 1019.6
20220808124459 64 0.0 0.0 0.00 0.47 0.10 77 1019.6
20220808123958 64 0.0 0.0 0.00 0.47 0.10 77 1019.5
20220808123457 64 0.0 0.0 0.00 0.47 0.10 77 1019.6
20220808122956 64 0.0 0.0 0.00 0.47 0.10 78 1019.4
20220808122455 64 0.0 0.0 0.00 0.47 0.10 77 1019.3
20220808121954 64 0.0 0.0 0.00 0.47 0.10 79 1019.5
20220808121453 64 0.0 0.0 0.00 0.47 0.10 80 1019.3
20220808120952 64 0.0 0.0 0.00 0.47 0.10 79 1019.2
20220808120451 64 0.0 0.0 0.00 0.47 0.10 81 1019.2
20220808115950 63 0.0 0.0 0.00 0.49 0.10 80 1019.1
20220808115449 63 0.0 0.0 0.00 0.49 0.10 80 1019.1
20220808114948 63 0.0 0.0 0.00 0.49 0.10 80 1019.0
20220808114447 64 0.0 0.0 0.00 0.49 0.10 82 1019.0
20220808113946 63 0.0 0.0 0.00 0.49 0.10 81 1018.9
20220808113445 62 0.0 0.0 0.00 0.49 0.10 82 1018.9
20220808112944 62 0.0 0.0 0.00 0.49 0.10 81 1018.8
20220808112443 62 0.0 0.0 0.00 0.49 0.10 81 1018.7
20220808111942 62 0.0 0.0 0.00 0.49 0.10 81 1018.7
20220808111441 62 0.0 0.0 0.00 0.49 0.10 82 1018.6
20220808110940 62 0.0 0.0 0.00 0.49 0.10 82 1018.4
20220808110439 62 0.0 0.0 0.00 0.49 0.10 82 1018.5
20220808105938 62 0.0 0.0 0.00 0.54 0.10 81 1018.3
20220808105437 62 0.0 0.0 0.00 0.54 0.10 81 1018.2
20220808104936 62 0.0 0.0 0.00 0.54 0.10 82 1018.2
20220808104435 61 0.0 0.0 0.00 0.54 0.10 82 1018.0
20220808103934 61 0.0 0.0 0.00 0.54 0.10 82 1018.0
20220808103433 60 0.0 0.0 0.00 0.54 0.10 82 1017.9
20220808102932 60 0.0 0.0 0.00 0.54 0.10 81 1017.8
20220808102432 60 0.0 0.0 0.00 0.54 0.10 81 1017.8
20220808101930 60 0.0 0.0 0.00 0.54 0.10 81 1017.7
20220808101429 60 0.0 0.0 0.00 0.54 0.10 81 1017.8
20220808100928 60 0.0 0.0 0.00 0.54 0.10 81 1017.6
20220808100427 60 0.0 0.0 0.00 0.54 0.10 81 1017.3
20220808095926 60 0.0 0.0 0.00 0.66 0.10 81 1017.2
20220808095425 60 0.0 0.0 0.00 0.66 0.10 81 1017.1
20220808094924 60 0.0 0.0 0.01 0.66 0.10 81 1017.2
20220808094423 60 0.0 0.0 0.01 0.66 0.10 81 1017.1
20220808093922 61 0.0 0.0 0.01 0.66 0.10 81 1017.1
20220808093421 61 0.0 0.0 0.01 0.66 0.10 81 1017.0
20220808092920 61 0.0 0.0 0.01 0.66 0.10 81 1017.2
20220808092419 61 0.0 0.0 0.01 0.66 0.10 81 1017.2
20220808091918 61 0.0 0.0 0.01 0.66 0.10 81 1017.1
20220808091417 61 0.0 0.0 0.01 0.66 0.10 81 1017.1
20220808090916 61 0.0 0.0 0.01 0.66 0.10 81 1017.0
20220808090415 61 0.0 0.0 0.01 0.66 0.10 81 1017.0
20220808085914 61 0.0 0.0 0.02 0.83 0.10 81 1017.1
20220808085413 60 0.0 0.0 0.02 0.83 0.10 81 1017.1
20220808084912 61 0.0 0.0 0.02 0.83 0.10 81 1017.0
20220808084411 61 0.0 0.0 0.01 0.82 0.09 81 1016.9
20220808083910 60 0.0 0.0 0.02 0.82 0.09 81 1016.9
20220808083409 61 0.0 0.0 0.02 0.82 0.09 81 1016.8
20220808082908 61 0.0 0.0 0.02 0.82 0.09 81 1016.6
20220808082407 61 0.0 0.0 0.02 0.82 0.09 81 1016.5
20220808081906 61 0.0 0.0 0.02 0.82 0.09 81 1016.4
20220808081405 60 0.0 0.0 0.02 0.82 0.09 81 1016.5
20220808080904 61 0.0 0.0 0.02 0.82 0.09 81 1016.3
20220808080403 60 0.0 0.0 0.02 0.82 0.09 81 1016.2
20220808075903 61 0.0 0.0 0.02 0.87 0.09 81 1016.4
20220808075402 61 0.0 0.0 0.01 0.86 0.08 81 1016.5
20220808074901 61 0.0 0.0 0.02 0.86 0.08 81 1016.5
20220808074400 61 0.0 0.0 0.02 0.86 0.08 81 1016.4
20220808073859 61 0.0 0.0 0.02 0.86 0.08 81 1016.3
20220808073358 60 0.0 0.0 0.02 0.86 0.08 81 1016.3
20220808072857 61 0.0 0.0 0.01 0.85 0.07 81 1016.1
20220808072356 61 0.0 0.0 0.01 0.85 0.07 81 1016.1
20220808071855 61 0.0 0.0 0.02 0.85 0.07 81 1016.2
20220808071354 61 0.0 0.0 0.02 0.85 0.07 81 1016.0
20220808070853 61 0.0 0.0 0.02 0.85 0.07 81 1016.0
20220808070352 61 0.0 0.0 0.02 0.85 0.07 81 1016.1
20220808065851 61 0.0 0.0 0.03 0.91 0.07 81 1016.1
20220808065350 61 0.0 0.0 0.03 0.91 0.07 81 1016.3
20220808064849 61 0.0 0.0 0.05 0.91 0.07 81 1016.2
20220808064348 61 0.0 0.0 0.04 0.90 0.06 81 1016.3
20220808063847 61 0.0 0.0 0.05 0.90 0.06 81 1016.3
20220808063346 61 0.0 0.0 0.05 0.90 0.06 80 1016.3
20220808062845 61 0.0 0.0 0.05 0.90 0.06 80 1016.4
20220808062344 61 0.0 0.0 0.05 0.90 0.06 80 1016.4
20220808061843 61 0.0 0.0 0.05 0.90 0.06 80 1016.5
20220808061342 61 0.0 0.0 0.04 0.89 0.05 80 1016.6
20220808060841 61 0.0 0.0 0.04 0.89 0.05 80 1016.5
20220808060340 61 0.0 0.0 0.04 0.89 0.05 80 1016.6
20220808055839 61 0.0 0.0 0.04 0.93 0.05 80 1016.6
20220808055338 61 0.0 0.0 0.03 0.92 0.04 80 1016.5
20220808054837 61 0.0 0.0 0.04 0.92 0.04 81 1016.4
20220808054336 61 0.0 0.0 0.03 0.91 0.03 81 1016.4
20220808053835 61 0.0 0.0 0.01 0.89 0.01 81 1016.2
20220808053334 61 0.0 0.0 0.01 0.89 0.01 80 1016.1
20220808052834 61 0.0 0.0 0.01 0.89 0.01 81 1016.2
20220808052332 61 0.0 0.0 0.01 0.89 0.01 81 1016.1
20220808051831 61 0.0 0.0 0.01 0.89 0.01 81 1016.0
20220808051330 61 0.0 0.0 0.01 0.89 0.01 81 1016.2
20220808050829 60 0.0 0.0 0.01 0.89 0.01 81 1016.3
20220808050328 60 0.0 0.0 0.01 0.89 0.01 81 1016.5
20220808045827 61 0.0 0.0 0.01 0.90 0.01 81 1016.4
20220808045326 60 0.0 0.0 0.01 0.90 0.01 81 1016.2
20220808044825 60 0.0 0.0 0.01 0.90 0.01 80 1016.3
20220808044324 60 0.0 0.0 0.01 0.90 0.01 81 1016.4
20220808043823 60 0.0 0.0 0.00 0.89 0.00 81 1016.3
20220808043322 60 0.0 0.0 0.00 0.89 0.00 80 1016.3
20220808042821 60 0.0 0.0 0.00 0.89 0.00 81 1016.2
20220808042320 60 0.0 0.0 0.00 0.89 0.00 81 1016.0
20220808041819 60 0.0 0.0 0.00 0.89 0.00 81 1015.9
20220808041318 60 0.0 0.0 0.00 0.89 0.00 81 1015.9
20220808040817 60 0.0 0.0 0.00 0.89 0.00 81 1016.0
20220808040316 60 0.0 0.0 0.00 0.89 0.00 81 1016.0
20220808035815 60 0.0 0.0 0.00 0.89 0.00 81 1015.9
20220808035314 60 0.0 0.0 0.00 0.89 0.00 81 1016.2
20220808034813 60 0.0 0.0 0.00 0.89 0.00 81 1016.3
20220808034312 60 0.0 0.0 0.00 0.89 0.00 81 1016.5
20220808033811 60 0.0 0.0 0.00 0.89 0.00 81 1016.4
20220808033310 60 0.0 0.0 0.00 0.89 0.00 81 1016.3
20220808032809 60 0.0 0.0 0.01 0.89 0.00 81 1016.3
20220808032308 60 0.0 0.0 0.01 0.89 0.00 82 1016.3
20220808031807 60 0.0 0.0 0.03 0.89 0.00 81 1016.2
20220808031306 60 0.0 0.0 0.03 0.89 0.00 81 1016.3
20220808030805 60 0.0 0.0 0.05 0.89 0.00 81 1016.6
20220808030304 60 0.0 0.0 0.05 0.89 0.00 82 1016.6
20220808025803 60 0.0 0.0 0.05 0.90 0.89 81 1016.5
20220808025304 60 0.0 0.0 0.05 0.90 0.89 82 1016.6
20220808024801 60 0.0 0.0 0.06 0.90 0.89 82 1016.5
20220808024300 60 0.0 0.0 0.06 0.90 0.89 81 1016.5
20220808023759 60 0.0 0.0 0.06 0.90 0.89 82 1016.2
20220808023258 60 0.0 0.0 0.06 0.90 0.89 82 1016.2
20220808022757 60 0.0 0.0 0.05 0.89 0.88 82 1016.0
20220808022256 60 0.0 0.0 0.05 0.89 0.88 82 1015.8
20220808021755 60 0.0 0.0 0.04 0.88 0.87 82 1016.6
20220808021254 60 0.0 0.0 0.03 0.87 0.86 82 1016.8
20220808020753 60 0.0 0.0 0.02 0.86 0.85 81 1017.2
20220808020252 60 0.0 0.0 0.02 0.86 0.85 82 1017.2
20220808015751 60 0.0 0.0 0.01 0.86 0.84 82 1017.2
20220808015250 60 0.0 0.0 0.01 0.86 0.84 81 1017.3
20220808014749 60 0.0 0.0 0.00 0.85 0.83 82 1017.1
20220808014248 60 0.0 0.0 0.00 0.85 0.83 81 1017.2
20220808013747 60 0.0 0.0 0.00 0.85 0.83 81 1017.2
20220808013246 60 0.0 0.0 0.00 0.85 0.83 81 1017.1
20220808012745 61 0.0 0.0 0.00 0.85 0.83 81 1016.9
20220808012244 60 0.0 0.0 0.00 0.85 0.83 81 1016.9
20220808011743 61 0.0 0.0 0.00 0.85 0.83 81 1017.0
20220808011242 61 0.0 0.0 0.00 0.85 0.83 81 1016.9
20220808010741 60 0.0 0.0 0.00 0.85 0.83 81 1016.6
20220808010240 60 0.0 0.0 0.00 0.85 0.83 81 1016.5
20220808005739 60 0.0 0.0 0.00 0.86 0.83 81 1016.6
20220808005238 60 0.0 0.0 0.00 0.86 0.83 81 1016.6
20220808004737 60 0.0 0.0 0.01 0.86 0.83 81 1016.4
20220808004236 60 0.0 0.0 0.01 0.86 0.83 81 1016.5
20220808003735 60 0.0 0.0 0.02 0.86 0.83 81 1016.4
20220808003234 60 0.0 0.0 0.02 0.86 0.83 81 1016.4
20220808002733 60 0.0 0.0 0.02 0.86 0.83 81 1016.5
20220808002232 60 0.0 0.0 0.02 0.86 0.83 81 1016.6
20220808001731 60 0.0 0.0 0.03 0.86 0.83 81 1016.9
20220808001230 60 0.0 0.0 0.03 0.86 0.83 81 1016.7
20220808000729 61 0.0 0.0 0.03 0.86 0.83 81 1016.6
20220808000228 61 0.0 0.0 0.03 0.86 0.83 81 1016.6
20220807235727 61 0.0 0.0 0.03 0.86 0.83 81 1016.7
20220807235226 61 0.0 0.0 0.03 0.86 0.83 81 1016.7
20220807234725 61 0.0 0.0 0.02 0.85 0.82 81 1016.7
20220807234224 61 0.0 0.0 0.02 0.85 0.82 81 1016.4
20220807233723 61 0.0 0.0 0.02 0.85 0.82 81 1016.6
20220807233222 61 0.0 0.0 0.01 0.84 0.81 81 1016.8
20220807232721 61 0.0 0.0 0.01 0.84 0.81 81 1017.1
20220807232220 61 0.0 0.0 0.01 0.84 0.81 81 1017.1
20220807231719 61 0.0 0.0 0.00 0.83 0.80 81 1017.0
20220807231218 61 0.0 0.0 0.00 0.83 0.80 81 1016.9
20220807230717 61 0.0 0.0 0.00 0.83 0.80 81 1016.7
20220807230216 61 0.0 0.0 0.00 0.83 0.80 81 1016.7
20220807225715 61 0.0 0.0 0.00 0.83 0.80 81 1016.7
20220807225214 61 0.0 0.0 0.00 0.83 0.80 81 1016.7
20220807224713 61 0.0 0.0 0.00 0.83 0.80 81 1016.7
20220807224212 61 0.0 0.0 0.00 0.83 0.80 81 1016.7
20220807223711 61 0.0 0.0 0.00 0.83 0.80 81 1016.7
20220807223210 61 0.0 0.0 0.00 0.83 0.80 81 1016.6
20220807222709 61 0.0 0.0 0.01 0.83 0.80 81 1016.6
20220807222208 61 0.0 0.0 0.01 0.83 0.80 81 1016.5
20220807221707 61 0.0 0.0 0.02 0.83 0.80 81 1016.4
20220807221206 61 0.0 0.0 0.02 0.83 0.80 81 1016.4
20220807220705 61 0.0 0.0 0.02 0.83 0.80 81 1016.4
20220807220204 61 0.0 0.0 0.02 0.83 0.80 81 1016.3
20220807215703 61 0.0 0.0 0.02 0.83 0.80 81 1016.2
20220807215202 61 0.0 0.0 0.02 0.83 0.80 81 1016.1
20220807214701 61 0.0 0.0 0.02 0.83 0.80 81 1016.0
20220807214200 61 0.0 0.0 0.02 0.83 0.80 81 1015.9
20220807213659 61 0.0 0.0 0.02 0.83 0.80 81 1015.9
20220807213158 61 0.0 0.0 0.02 0.83 0.80 81 1015.8
20220807212657 61 0.0 0.0 0.03 0.83 0.80 81 1016.0
20220807212156 61 0.0 0.0 0.02 0.82 0.79 81 1016.1
20220807211655 61 0.0 0.0 0.03 0.82 0.79 81 1016.2
20220807211154 61 0.0 0.0 0.02 0.81 0.78 81 1016.1
20220807210653 61 0.0 0.0 0.03 0.81 0.78 81 1016.0
20220807210152 61 0.0 0.0 0.03 0.81 0.78 81 1015.9
20220807205651 61 0.0 0.0 0.05 0.82 0.78 81 1015.9
20220807205150 61 0.0 0.0 0.05 0.82 0.78 81 1016.1
20220807204649 61 0.0 0.0 0.06 0.82 0.78 81 1016.0
20220807204148 61 0.0 0.0 0.06 0.82 0.78 81 1015.9
20220807203647 61 0.0 0.0 0.07 0.82 0.78 81 1015.9